Grizzly Air Cargo 5374


PACD
Cold Bay Airport
Cold Bay, Alaska, US
PASD
Sand Point Airport
Sand Point, Alaska, US

Activity Log

Date Flight Route Aircraft Duration
No Flights Yet

Route Details

Aircraft Information
Primary: Saab 340AF
Backup: Not Available
Route Data
Distance: 91nm
Sched. Duration: 0h 40m
Avg. Duration: 0h 00m (-40m)
Times Flown: 0
Recm'd Route: ELF G12 HBT
Planned Altitude: 13,000ft
Origin Wx: PACD 190853Z AUTO 15012KT 10SM OVC100 M04/M08 A2963 RMK AO2 SLP036 T10391083 410281094 58014 TSNO $
Dest. Wx: PASD 190856Z AUTO 08004KT 10SM FEW120 M04/M08 A2974 RMK AO2 SLP073 6//// T10441083 50005 FZRANO PNO $
Notes:

Financial History
Total Freight: 0lbs
Average Load: 0lbs/flt
Fuel Used: 0lbs
Avg. Fuel Used: 0lbs/flt
Fuel Expense: $0
Avg. Fuel Expense: $0
Avg. Fuel Cost: $0/lbs
Total Gross Income: $0
Pilot Pay: $0
Total Expenses: $0
Total Revenue: $0
Average Revenue: $0